Time;durP1;ratioP1;P1;durP2;ratioP2;P2;SDS_P1;SDS_P2;PMS_P1;PMS_P2;Temp;Humidity;BMP_temperature;BMP_pressure;BME280_temperature;BME280_humidity;BME280_pressure;Samples;Min_cycle;Max_cycle;Signal;HPM_P1;HPM_P2
2021/05/17 00:02:28;;;;;;;0.50;0.50;;;8.40;99.90;;;;;;4749548;30;20064;-76
2021/05/17 00:04:56;;;;;;;1.67;0.77;;;8.40;99.90;;;;;;4749923;30;20078;-76
2021/05/17 00:07:24;;;;;;;0.40;0.40;;;8.40;99.90;;;;;;4749400;30;20060;-76
2021/05/17 00:09:52;;;;;;;0.55;0.50;;;8.30;99.90;;;;;;4735317;30;20049;-76
2021/05/17 00:12:20;;;;;;;0.60;0.55;;;8.30;99.90;;;;;;4732181;30;20052;-76
2021/05/17 00:14:48;;;;;;;0.50;0.50;;;8.30;99.90;;;;;;4732690;30;20554;-76
2021/05/17 00:17:16;;;;;;;0.45;0.45;;;8.20;99.90;;;;;;4732357;30;20067;-76
2021/05/17 00:19:44;;;;;;;0.32;0.32;;;8.20;99.90;;;;;;4752367;30;20052;-76
2021/05/17 00:22:12;;;;;;;0.40;0.40;;;8.20;99.90;;;;;;4754554;30;20056;-76
2021/05/17 00:24:40;;;;;;;0.55;0.55;;;8.20;99.90;;;;;;4755671;30;20056;-75
2021/05/17 00:27:09;;;;;;;0.55;0.55;;;8.20;99.90;;;;;;4756018;30;20060;-76
2021/05/17 00:29:37;;;;;;;0.70;0.40;;;8.10;99.90;;;;;;4755617;30;20059;-76
2021/05/17 00:32:06;;;;;;;0.68;0.50;;;8.10;99.90;;;;;;4755108;30;20059;-77
2021/05/17 00:34:34;;;;;;;1.85;1.40;;;8.10;99.90;;;;;;4755868;30;20794;-77
2021/05/17 00:37:02;;;;;;;0.40;0.40;;;8.10;99.90;;;;;;4754737;30;20064;-76
2021/05/17 00:39:31;;;;;;;1.08;0.98;;;8.10;99.90;;;;;;4756159;30;20064;-76
2021/05/17 00:41:59;;;;;;;0.50;0.50;;;8.10;99.90;;;;;;4755183;30;20055;-76
2021/05/17 00:44:28;;;;;;;0.52;0.52;;;8.00;99.90;;;;;;4755769;30;20051;-75
2021/05/17 00:46:59;;;;;;;;;;;8.00;99.90;;;;;;4746227;30;20060;-76
2021/05/17 00:49:27;;;;;;;0.40;0.40;;;8.00;99.90;;;;;;4750045;30;20381;-76
2021/05/17 00:51:55;;;;;;;0.60;0.60;;;8.00;99.90;;;;;;4754338;30;20071;-76
2021/05/17 00:54:24;;;;;;;2.88;0.60;;;7.90;99.90;;;;;;4755045;30;20491;-77
2021/05/17 00:56:52;;;;;;;0.40;0.40;;;7.90;99.90;;;;;;4755204;30;20044;-76
2021/05/17 00:59:21;;;;;;;0.60;0.60;;;8.00;99.90;;;;;;4739533;30;20071;-76
2021/05/17 01:01:49;;;;;;;1.15;0.68;;;8.00;99.90;;;;;;4738670;30;20045;-76
2021/05/17 01:04:21;;;;;;;0.60;0.43;;;8.00;99.90;;;;;;4739500;30;20052;-76
2021/05/17 01:06:54;;;;;;;0.45;0.45;;;8.00;99.90;;;;;;4739041;30;20071;-76
2021/05/17 01:09:26;;;;;;;0.40;0.40;;;8.10;99.90;;;;;;4755258;30;20132;-76
2021/05/17 01:11:58;;;;;;;1.65;0.40;;;8.10;99.90;;;;;;4739317;30;20056;-76
2021/05/17 01:14:27;;;;;;;0.60;0.60;;;8.10;99.90;;;;;;4753875;30;20060;-76
2021/05/17 01:16:55;;;;;;;1.58;0.60;;;8.20;99.90;;;;;;4738963;30;20503;-76
2021/05/17 01:19:42;;;;;;;0.52;0.52;;;8.20;99.90;;;;;;4739135;30;20067;-76
2021/05/17 01:22:23;;;;;;;0.43;0.40;;;8.20;99.90;;;;;;4753762;30;20060;-76
2021/05/17 01:24:55;;;;;;;2.55;0.60;;;8.20;99.90;;;;;;4739264;30;20055;-76
2021/05/17 01:27:23;;;;;;;0.50;0.50;;;8.20;99.90;;;;;;4755509;30;20071;-76
2021/05/17 01:29:51;;;;;;;1.25;1.15;;;8.20;99.90;;;;;;4719856;30;20053;-76
2021/05/17 01:32:19;;;;;;;0.60;0.60;;;8.20;99.90;;;;;;4734613;30;20049;-76
2021/05/17 01:34:48;;;;;;;0.77;0.50;;;8.20;99.90;;;;;;4734852;30;20081;-77
2021/05/17 01:37:18;;;;;;;0.60;0.60;;;8.30;99.90;;;;;;4735275;30;20052;-77
2021/05/17 01:39:48;;;;;;;0.70;0.70;;;8.30;99.90;;;;;;4752858;30;20067;-76
2021/05/17 01:43:21;;;;;;;0.73;0.73;;;8.30;99.90;;;;;;4752069;30;20056;-76
2021/05/17 01:45:50;;;;;;;0.57;0.57;;;8.30;99.90;;;;;;4752301;30;20056;-76
2021/05/17 01:48:23;;;;;;;0.50;0.50;;;8.30;99.90;;;;;;4736058;30;20422;-77
2021/05/17 01:50:51;;;;;;;0.63;0.45;;;8.30;99.90;;;;;;4736057;30;20057;-78
2021/05/17 01:53:21;;;;;;;0.68;0.50;;;8.30;99.90;;;;;;4735032;30;20570;-79
2021/05/17 01:55:50;;;;;;;0.80;0.77;;;8.30;99.90;;;;;;4752450;30;20538;-77
2021/05/17 01:58:23;;;;;;;1.13;0.82;;;8.30;99.90;;;;;;4748934;30;20048;-77
2021/05/17 02:00:59;;;;;;;1.02;0.80;;;8.30;99.90;;;;;;4750648;30;20052;-77
2021/05/17 02:03:29;;;;;;;0.57;0.57;;;8.20;99.90;;;;;;4750963;30;20060;-79
2021/05/17 02:05:59;;;;;;;0.80;0.68;;;8.20;99.90;;;;;;4751677;30;20056;-79
2021/05/17 02:08:29;;;;;;;1.63;0.77;;;8.10;99.90;;;;;;4746997;30;20063;-80
2021/05/17 02:11:01;;;;;;;0.50;0.50;;;8.10;99.90;;;;;;4718597;30;20067;-79
2021/05/17 02:13:36;;;;;;;0.52;0.52;;;8.10;99.90;;;;;;4734012;30;20056;-79
2021/05/17 02:16:04;;;;;;;2.03;0.80;;;8.10;99.90;;;;;;4733312;30;20061;-78
2021/05/17 02:18:37;;;;;;;0.80;0.65;;;8.10;99.90;;;;;;4723489;30;20052;-79
2021/05/17 02:21:06;;;;;;;0.57;0.57;;;8.10;99.90;;;;;;4735176;30;20074;-79
2021/05/17 02:23:34;;;;;;;0.43;0.43;;;8.10;99.90;;;;;;4734992;30;20068;-77
2021/05/17 02:26:04;;;;;;;2.05;0.95;;;8.10;99.90;;;;;;4751544;30;20499;-77
2021/05/17 02:28:40;;;;;;;0.93;0.93;;;8.00;99.90;;;;;;4750247;30;20063;-77
2021/05/17 02:31:12;;;;;;;0.73;0.73;;;8.00;99.90;;;;;;4750496;30;20060;-77
2021/05/17 02:33:40;;;;;;;4.47;0.90;;;8.00;99.90;;;;;;4749758;30;20064;-77
2021/05/17 02:36:09;;;;;;;0.70;0.70;;;8.10;99.90;;;;;;4751108;30;20060;-77
2021/05/17 02:38:38;;;;;;;1.38;1.08;;;8.00;99.90;;;;;;4735105;30;20063;-77
2021/05/17 02:41:09;;;;;;;0.60;0.60;;;8.10;99.90;;;;;;4750146;30;20534;-77
2021/05/17 02:43:38;;;;;;;0.68;0.68;;;8.10;99.90;;;;;;4751525;30;20060;-77
2021/05/17 02:46:13;;;;;;;0.60;0.60;;;8.10;99.90;;;;;;4747872;30;20044;-77
2021/05/17 02:48:46;;;;;;;0.60;0.60;;;8.10;99.90;;;;;;4740305;30;20056;-77
2021/05/17 02:51:14;;;;;;;3.17;0.90;;;8.00;99.90;;;;;;4751004;30;20063;-78
2021/05/17 02:53:51;;;;;;;1.83;0.93;;;8.10;99.90;;;;;;4749968;30;20052;-78
2021/05/17 02:56:35;;;;;;;0.80;0.60;;;8.10;99.90;;;;;;4750750;30;20049;-77
2021/05/17 02:59:15;;;;;;;0.88;0.88;;;8.10;99.90;;;;;;4735612;30;20059;-78
2021/05/17 03:01:54;;;;;;;2.05;0.88;;;8.10;99.90;;;;;;4734190;30;20056;-77
2021/05/17 03:04:24;;;;;;;1.13;1.02;;;8.10;99.90;;;;;;4734804;30;20069;-77
2021/05/17 03:07:02;;;;;;;1.88;1.77;;;8.10;99.90;;;;;;4734675;30;20480;-80
2021/05/17 03:09:35;;;;;;;0.60;0.60;;;8.20;99.90;;;;;;4734862;30;20060;-78
2021/05/17 03:12:08;;;;;;;1.95;0.75;;;8.20;99.90;;;;;;4750271;30;20063;-78
2021/05/17 03:14:41;;;;;;;2.42;1.42;;;8.20;99.90;;;;;;4734464;30;20064;-77
2021/05/17 03:17:11;;;;;;;1.77;1.70;;;8.10;99.90;;;;;;4734393;30;20055;-79
2021/05/17 03:19:44;;;;;;;0.50;0.50;;;8.20;99.90;;;;;;4750671;30;20067;-77
2021/05/17 03:22:13;;;;;;;0.50;0.50;;;8.10;99.90;;;;;;4733680;30;20067;-77
2021/05/17 03:24:44;;;;;;;0.63;0.63;;;8.10;99.90;;;;;;4750466;30;20059;-77
2021/05/17 03:27:21;;;;;;;0.70;0.70;;;8.10;99.90;;;;;;4750671;30;20082;-77
2021/05/17 03:29:50;;;;;;;0.60;0.60;;;8.00;99.90;;;;;;4747588;30;20053;-77
2021/05/17 03:32:19;;;;;;;0.50;0.50;;;8.00;99.90;;;;;;4732417;30;20053;-77
2021/05/17 03:34:48;;;;;;;0.88;0.63;;;8.00;99.90;;;;;;4733308;30;20064;-77
2021/05/17 03:37:16;;;;;;;0.65;0.60;;;8.00;99.90;;;;;;4748901;30;20059;-77
2021/05/17 03:39:49;;;;;;;0.55;0.55;;;8.00;99.90;;;;;;4750698;30;20525;-77
2021/05/17 03:42:17;;;;;;;0.80;0.80;;;8.00;99.90;;;;;;4750497;30;20052;-77
2021/05/17 03:44:45;;;;;;;0.82;0.82;;;8.00;99.90;;;;;;4736639;30;20083;-77
2021/05/17 03:47:13;;;;;;;2.25;1.95;;;8.00;99.90;;;;;;4732790;30;20060;-81
2021/05/17 03:49:41;;;;;;;0.88;0.88;;;7.90;99.90;;;;;;4732543;30;20048;-78
2021/05/17 03:52:09;;;;;;;0.55;0.55;;;7.90;99.90;;;;;;4715267;30;20083;-77
2021/05/17 03:54:37;;;;;;;0.73;0.60;;;7.90;99.90;;;;;;4732303;30;20376;-77
2021/05/17 03:57:05;;;;;;;1.48;0.75;;;7.90;99.90;;;;;;4732400;30;20571;-78
2021/05/17 03:59:35;;;;;;;0.60;0.60;;;7.90;99.90;;;;;;4732997;30;20095;-78
2021/05/17 04:02:04;;;;;;;0.60;0.45;;;7.90;99.90;;;;;;4731187;30;20083;-78
2021/05/17 04:04:38;;;;;;;2.38;0.60;;;8.00;99.90;;;;;;4732626;30;20056;-77
2021/05/17 04:07:22;;;;;;;0.93;0.93;;;8.00;99.90;;;;;;4732177;30;20511;-78
2021/05/17 04:15:42;;;;;;;1.30;0.50;;;8.10;99.90;;;;;;4732687;30;20067;-78
2021/05/17 04:18:11;;;;;;;0.50;0.47;;;8.10;99.90;;;;;;4732003;30;20059;-77
2021/05/17 04:20:39;;;;;;;0.50;0.50;;;8.00;99.90;;;;;;4731954;30;20626;-77
2021/05/17 04:23:07;;;;;;;2.33;0.60;;;8.00;99.90;;;;;;4731170;30;20492;-77
2021/05/17 04:25:35;;;;;;;1.23;0.68;;;7.90;99.90;;;;;;4731959;30;20060;-77
2021/05/17 04:28:03;;;;;;;0.77;0.60;;;8.00;99.90;;;;;;4732164;30;20067;-78
2021/05/17 04:30:32;;;;;;;2.95;0.55;;;8.00;99.90;;;;;;4732343;30;20060;-78
2021/05/17 04:33:00;;;;;;;2.25;1.00;;;8.00;99.90;;;;;;4731897;30;20056;-77
2021/05/17 04:35:28;;;;;;;1.40;0.93;;;7.90;99.90;;;;;;4736143;30;20558;-82
2021/05/17 04:37:56;;;;;;;2.88;0.63;;;8.00;99.90;;;;;;4748043;30;20045;-79
2021/05/17 04:40:24;;;;;;;0.75;0.65;;;8.00;99.90;;;;;;4749691;30;20470;-81
2021/05/17 04:42:52;;;;;;;0.50;0.50;;;8.00;99.90;;;;;;4749962;30;20068;-80
2021/05/17 04:45:23;;;;;;;0.82;0.60;;;8.00;99.90;;;;;;4734248;30;20068;-79
2021/05/17 04:47:52;;;;;;;0.70;0.70;;;8.00;99.90;;;;;;4749662;30;20060;-79
2021/05/17 04:50:20;;;;;;;0.75;0.65;;;8.00;99.90;;;;;;4749352;30;20064;-81
2021/05/17 04:52:48;;;;;;;2.50;2.30;;;8.00;99.90;;;;;;4748153;30;20836;-79
2021/05/17 04:55:16;;;;;;;0.98;0.60;;;8.00;99.90;;;;;;4750093;30;20063;-78
2021/05/17 04:57:44;;;;;;;4.00;0.80;;;7.90;99.90;;;;;;4749380;30;20427;-78
2021/05/17 05:00:13;;;;;;;1.05;0.90;;;8.00;99.90;;;;;;4749193;30;20071;-77
2021/05/17 05:02:41;;;;;;;0.70;0.50;;;8.00;99.90;;;;;;4749507;30;20079;-78
2021/05/17 05:05:09;;;;;;;2.85;0.60;;;8.00;99.90;;;;;;4750538;30;20396;-78
2021/05/17 05:07:37;;;;;;;1.92;1.80;;;8.10;99.90;;;;;;4736718;30;20052;-81
2021/05/17 05:10:06;;;;;;;0.50;0.50;;;8.10;99.90;;;;;;4752737;30;20060;-78
2021/05/17 05:12:38;;;;;;;0.60;0.60;;;8.10;99.90;;;;;;4752788;30;20056;-78
2021/05/17 05:15:06;;;;;;;1.88;1.15;;;8.20;99.90;;;;;;4753252;30;20064;-79
2021/05/17 05:17:35;;;;;;;1.38;0.50;;;8.20;99.90;;;;;;4751935;30;20534;-79
2021/05/17 05:20:04;;;;;;;4.95;0.75;;;8.20;99.90;;;;;;4752409;30;20064;-81
2021/05/17 05:22:32;;;;;;;7.28;2.05;;;8.20;99.90;;;;;;4751899;30;20391;-82
2021/05/17 05:25:00;;;;;;;0.52;0.52;;;8.20;99.90;;;;;;4752460;30;20059;-78
2021/05/17 05:27:40;;;;;;;0.90;0.85;;;8.30;99.90;;;;;;4752859;30;20055;-80
2021/05/17 05:32:40;;;;;;;3.55;1.02;;;8.30;99.90;;;;;;4751987;30;20060;-78
2021/05/17 05:35:08;;;;;;;0.60;0.60;;;8.30;99.90;;;;;;4752808;30;20091;-78
2021/05/17 05:37:36;;;;;;;3.40;1.23;;;8.30;99.90;;;;;;4751463;30;20063;-81
2021/05/17 05:40:06;;;;;;;1.02;1.00;;;8.30;99.90;;;;;;4721771;30;20375;-79
2021/05/17 05:42:34;;;;;;;7.97;2.45;;;8.30;99.90;;;;;;4752518;30;20064;-81
2021/05/17 05:45:04;;;;;;;0.80;0.80;;;8.30;99.90;;;;;;4737448;30;20045;-79
2021/05/17 05:47:32;;;;;;;4.93;0.90;;;8.30;99.90;;;;;;4734842;30;20396;-81
2021/05/17 05:50:00;;;;;;;3.58;2.03;;;8.40;99.90;;;;;;4734439;30;20169;-81
2021/05/17 05:52:28;;;;;;;1.08;0.50;;;8.40;99.90;;;;;;4717841;30;20048;-79
2021/05/17 05:54:59;;;;;;;1.33;0.90;;;8.50;99.90;;;;;;4719114;30;20264;-80
2021/05/17 05:57:27;;;;;;;3.50;1.02;;;8.60;99.90;;;;;;4734270;30;20079;-81
2021/05/17 05:59:55;;;;;;;5.25;1.10;;;8.60;99.90;;;;;;4718774;30;20067;-80
2021/05/17 06:02:23;;;;;;;1.75;0.70;;;8.70;99.90;;;;;;4733702;30;20065;-81
2021/05/17 06:04:51;;;;;;;11.23;2.20;;;8.80;99.90;;;;;;4718330;30;20049;-78
2021/05/17 06:07:19;;;;;;;1.65;0.95;;;8.90;99.90;;;;;;4734204;30;20515;-80
2021/05/17 06:09:47;;;;;;;4.38;2.15;;;9.20;99.90;;;;;;4717869;30;20073;-79
2021/05/17 06:12:15;;;;;;;3.42;0.98;;;9.70;99.90;;;;;;4708775;30;20131;-79
2021/05/17 06:14:43;;;;;;;6.93;2.35;;;9.60;99.90;;;;;;4734829;30;20063;-81
2021/05/17 06:17:12;;;;;;;1.85;0.80;;;9.40;99.90;;;;;;4734334;30;20052;-79
2021/05/17 06:19:40;;;;;;;5.10;1.40;;;9.20;99.90;;;;;;4751846;30;20067;-80
2021/05/17 06:22:08;;;;;;;7.40;1.98;;;9.90;99.90;;;;;;4749337;30;20514;-79
2021/05/17 06:24:36;;;;;;;1.85;1.63;;;10.20;99.90;;;;;;4751028;30;20418;-82
2021/05/17 06:27:05;;;;;;;2.15;0.70;;;10.10;99.90;;;;;;4733867;30;20048;-79
2021/05/17 06:29:33;;;;;;;10.27;2.20;;;9.70;99.90;;;;;;4744311;30;20052;-79
2021/05/17 06:32:01;;;;;;;1.30;0.85;;;9.50;99.90;;;;;;4733630;30;20087;-81
2021/05/17 06:34:30;;;;;;;4.20;1.10;;;9.50;99.90;;;;;;4729184;30;20064;-81
2021/05/17 06:36:58;;;;;;;3.50;1.05;;;9.90;99.90;;;;;;4742266;30;20056;-79
2021/05/17 06:39:26;;;;;;;2.10;1.00;;;10.00;99.90;;;;;;4720092;30;20064;-79
2021/05/17 06:41:54;;;;;;;2.58;1.10;;;9.80;99.90;;;;;;4734653;30;20403;-81
2021/05/17 06:44:22;;;;;;;2.20;1.20;;;9.60;99.90;;;;;;4750606;30;20511;-82
2021/05/17 06:46:50;;;;;;;4.47;2.60;;;9.60;99.90;;;;;;4740740;30;20412;-75
2021/05/17 06:49:19;;;;;;;5.85;1.00;;;9.60;99.90;;;;;;4732622;30;20052;-74
2021/05/17 06:51:47;;;;;;;2.58;1.88;;;9.80;99.90;;;;;;4732514;30;20065;-74
2021/05/17 06:54:19;;;;;;;1.08;1.08;;;9.90;99.90;;;;;;4732661;30;20053;-84
2021/05/17 06:57:06;;;;;;;6.10;1.52;;;9.90;99.90;;;;;;4743382;30;20056;-86
2021/05/17 06:59:46;;;;;;;2.88;1.63;;;9.80;99.90;;;;;;4734238;30;20064;-82
2021/05/17 07:02:20;;;;;;;3.67;0.98;;;9.70;99.90;;;;;;4707185;30;20048;-80
2021/05/17 07:04:53;;;;;;;3.42;0.73;;;9.50;99.90;;;;;;4745829;30;20518;-81
2021/05/17 07:07:41;;;;;;;1.00;1.00;;;9.70;99.90;;;;;;4747970;30;20060;-81
2021/05/17 07:12:57;;;;;;;2.10;1.67;;;10.50;99.90;;;;;;4748358;30;20068;-82
2021/05/17 07:15:25;;;;;;;2.88;1.08;;;11.00;99.90;;;;;;4748936;30;20521;-82
2021/05/17 07:17:53;;;;;;;1.70;0.80;;;11.60;99.90;;;;;;4748271;30;20407;-81
2021/05/17 07:26:16;;;;;;;1.50;1.27;;;11.10;99.90;;;;;;4733447;30;20044;-81
2021/05/17 07:28:48;;;;;;;2.95;0.95;;;11.20;99.90;;;;;;4748495;30;20090;-81
2021/05/17 07:31:16;;;;;;;2.92;1.35;;;11.10;99.90;;;;;;4749489;30;20498;-81
2021/05/17 07:33:45;;;;;;;3.85;0.90;;;11.10;99.90;;;;;;4748687;30;20059;-83
2021/05/17 07:36:14;;;;;;;0.77;0.70;;;11.00;99.90;;;;;;4739376;30;20063;-82
2021/05/17 07:38:43;;;;;;;3.60;0.80;;;11.00;99.90;;;;;;4730201;30;20056;-84
2021/05/17 07:41:12;;;;;;;2.05;0.70;;;10.80;99.90;;;;;;4730425;30;20044;-83
2021/05/17 07:43:40;;;;;;;2.15;0.88;;;10.70;99.90;;;;;;4720555;30;20071;-82
2021/05/17 07:46:09;;;;;;;11.18;2.53;;;10.60;99.90;;;;;;4748706;30;20056;-81
2021/05/17 07:49:02;;;;;;;1.65;0.80;;;10.60;99.90;;;;;;4738773;30;20044;-80
2021/05/17 07:51:25;;;;;;;1.33;1.23;;;10.50;99.90;;;;;;4739299;30;20056;-83
2021/05/17 07:53:53;;;;;;;6.78;2.00;;;10.30;99.90;;;;;;4722443;30;20459;-81
2021/05/17 07:56:22;;;;;;;3.53;2.15;;;10.40;99.90;;;;;;4719914;30;20048;-81
2021/05/17 07:58:55;;;;;;;1.15;1.02;;;10.40;99.90;;;;;;4715357;30;20061;-78
2021/05/17 08:01:26;;;;;;;6.90;1.05;;;10.30;99.90;;;;;;4720485;30;20048;-87
2021/05/17 08:03:54;;;;;;;1.63;0.98;;;10.50;99.90;;;;;;4732507;30;20060;-84
2021/05/17 08:06:24;;;;;;;1.52;0.88;;;10.70;99.90;;;;;;4740085;30;20453;-82
2021/05/17 08:08:53;;;;;;;0.98;0.90;;;11.20;99.90;;;;;;4726555;30;20037;-82
2021/05/17 08:11:21;;;;;;;2.03;1.05;;;11.00;99.10;;;;;;4729541;30;20061;-78
2021/05/17 08:13:50;;;;;;;1.20;0.80;;;10.90;99.90;;;;;;4735953;30;20048;-79
2021/05/17 08:16:22;;;;;;;1.13;1.00;;;10.70;99.60;;;;;;4747662;30;20052;-78
2021/05/17 08:18:51;;;;;;;1.00;0.80;;;11.10;99.00;;;;;;4747328;30;20071;-79
2021/05/17 08:21:20;;;;;;;2.10;1.13;;;11.10;98.70;;;;;;4746063;30;20044;-81
2021/05/17 08:23:49;;;;;;;4.78;1.90;;;11.00;98.90;;;;;;4745794;30;20632;-79
2021/05/17 08:26:17;;;;;;;0.70;0.70;;;11.40;99.00;;;;;;4731818;30;20055;-79
2021/05/17 08:28:45;;;;;;;1.05;0.60;;;11.50;98.80;;;;;;4746900;30;20048;-76
2021/05/17 08:31:16;;;;;;;1.75;0.90;;;11.40;98.20;;;;;;4731713;30;20055;-78
2021/05/17 08:33:45;;;;;;;3.92;1.02;;;11.10;97.80;;;;;;4731014;30;20060;-76
2021/05/17 08:36:31;;;;;;;1.58;0.70;;;10.80;99.80;;;;;;4738689;30;20412;-77
2021/05/17 08:38:59;;;;;;;1.13;1.05;;;10.80;98.90;;;;;;4747047;30;20056;-76
2021/05/17 08:41:28;;;;;;;5.18;2.17;;;10.90;99.90;;;;;;4750442;30;20051;-77
2021/05/17 08:43:56;;;;;;;0.73;0.73;;;11.00;99.90;;;;;;4735171;30;20349;-77
2021/05/17 08:46:24;;;;;;;1.15;0.43;;;11.20;99.10;;;;;;4729550;30;20057;-77
2021/05/17 08:49:10;;;;;;;1.00;0.60;;;11.60;99.30;;;;;;4746583;30;20063;-78
2021/05/17 08:51:56;;;;;;;2.75;0.88;;;11.50;99.50;;;;;;4722264;30;20060;-77
2021/05/17 08:54:43;;;;;;;3.38;0.60;;;11.20;97.80;;;;;;4743219;30;20056;-77
2021/05/17 08:57:29;;;;;;;2.17;0.60;;;11.00;98.50;;;;;;4737087;30;20059;-75
2021/05/17 09:00:21;;;;;;;0.60;0.60;;;10.80;99.60;;;;;;4749559;30;20077;-77
2021/05/17 09:03:07;;;;;;;2.45;0.70;;;10.80;99.90;;;;;;4738450;30;20144;-76
2021/05/17 09:05:56;;;;;;;1.58;0.70;;;10.70;99.20;;;;;;4750958;30;20063;-75
2021/05/17 09:08:44;;;;;;;10.18;2.55;;;10.80;99.90;;;;;;4730798;30;20060;-77
2021/05/17 09:11:33;;;;;;;0.60;0.60;;;11.20;99.90;;;;;;4732101;30;20145;-76
2021/05/17 09:14:20;;;;;;;0.57;0.57;;;11.50;97.70;;;;;;4732134;30;20065;-79
2021/05/17 09:17:09;;;;;;;1.30;0.55;;;11.50;97.80;;;;;;4731823;30;20063;-76
2021/05/17 09:19:56;;;;;;;1.77;0.80;;;11.50;96.80;;;;;;4732977;30;20076;-76
2021/05/17 09:22:42;;;;;;;0.52;0.52;;;11.60;95.90;;;;;;4700894;30;20071;-76
2021/05/17 09:25:29;;;;;;;1.77;0.50;;;11.70;95.70;;;;;;4711554;30;20056;-78
2021/05/17 09:28:45;;;;;;;6.32;0.85;;;11.90;96.70;;;;;;4711324;30;20660;-75
2021/05/17 09:31:34;;;;;;;0.43;0.40;;;11.80;94.40;;;;;;4711462;30;20088;-78
2021/05/17 09:34:34;;;;;;;0.40;0.40;;;11.80;96.80;;;;;;4699687;30;20432;-77
2021/05/17 09:37:20;;;;;;;1.98;0.70;;;11.90;96.60;;;;;;4697610;30;20068;-78
2021/05/17 09:39:51;;;;;;;1.05;0.60;;;12.00;97.70;;;;;;4697124;30;20064;-78
2021/05/17 09:42:23;;;;;;;5.63;0.83;;;12.30;95.00;;;;;;4710785;30;20072;-77
2021/05/17 09:44:55;;;;;;;0.57;0.57;;;12.50;93.70;;;;;;4709887;30;20487;-78
2021/05/17 09:47:28;;;;;;;0.35;0.35;;;12.40;97.30;;;;;;4711455;30;20567;-81
2021/05/17 09:49:59;;;;;;;0.45;0.45;;;12.80;94.50;;;;;;4710769;30;20072;-79
2021/05/17 09:52:29;;;;;;;0.63;0.50;;;13.00;95.00;;;;;;4708197;30;20057;-79
2021/05/17 09:55:08;;;;;;;0.50;0.50;;;13.10;93.40;;;;;;4716259;30;20084;-77
2021/05/17 09:57:42;;;;;;;0.40;0.40;;;12.50;96.00;;;;;;4748914;30;20052;-78
2021/05/17 10:00:23;;;;;;;0.40;0.40;;;12.50;95.30;;;;;;4746991;30;20063;-79
2021/05/17 10:02:53;;;;;;;1.38;0.50;;;12.30;94.60;;;;;;4727488;30;20056;-78
2021/05/17 10:05:35;;;;;;;3.10;1.05;;;12.40;94.80;;;;;;4729998;30;20547;-77
2021/05/17 10:08:16;;;;;;;5.18;1.02;;;12.80;95.40;;;;;;4729085;30;20065;-79
2021/05/17 10:10:45;;;;;;;1.33;0.60;;;13.00;94.20;;;;;;4729255;30;20060;-79
2021/05/17 10:13:14;;;;;;;0.50;0.50;;;12.90;94.30;;;;;;4730936;30;20287;-77
2021/05/17 10:15:43;;;;;;;0.35;0.32;;;12.70;95.10;;;;;;4729808;30;20388;-77
2021/05/17 10:18:15;;;;;;;2.92;0.80;;;12.50;94.10;;;;;;4700702;30;20049;-78
2021/05/17 10:20:44;;;;;;;1.40;0.47;;;12.20;93.60;;;;;;4743706;30;20075;-78
2021/05/17 10:23:13;;;;;;;2.28;0.68;;;12.60;93.80;;;;;;4748067;30;20052;-79
2021/05/17 10:25:43;;;;;;;2.75;0.68;;;13.00;94.00;;;;;;4732963;30;20195;-80
2021/05/17 10:28:20;;;;;;;0.50;0.50;;;13.20;93.90;;;;;;4733594;30;20507;-79
2021/05/17 10:30:48;;;;;;;1.00;0.63;;;13.00;92.50;;;;;;4749373;30;20701;-80
2021/05/17 10:33:27;;;;;;;1.90;1.20;;;12.90;93.00;;;;;;4732691;30;20488;-78
2021/05/17 10:35:55;;;;;;;3.25;0.50;;;13.00;94.40;;;;;;4725252;30;20067;-78
2021/05/17 10:41:21;;;;;;;0.40;0.40;;;13.30;93.10;;;;;;4750926;30;20052;-82
2021/05/17 10:46:53;;;;;;;1.20;1.20;;;13.20;92.40;;;;;;4739483;30;20056;-77
2021/05/17 10:49:36;;;;;;;0.40;0.40;;;13.30;98.30;;;;;;4731421;30;20052;-76
2021/05/17 10:52:04;;;;;;;0.40;0.40;;;14.00;91.60;;;;;;4738926;30;20500;-76
2021/05/17 10:54:31;;;;;;;0.50;0.50;;;13.70;92.60;;;;;;4749427;30;20072;-78
2021/05/17 10:57:03;;;;;;;0.50;0.50;;;13.10;93.40;;;;;;4733204;30;20396;-78
2021/05/17 11:02:29;;;;;;;1.55;0.95;;;13.00;93.30;;;;;;4747573;30;20052;-77
2021/05/17 11:05:16;;;;;;;0.57;0.57;;;13.10;93.00;;;;;;4749317;30;20055;-78
2021/05/17 11:07:46;;;;;;;1.45;0.50;;;13.30;92.20;;;;;;4747175;30;20527;-76
2021/05/17 11:10:26;;;;;;;0.88;0.80;;;13.00;92.80;;;;;;4748152;30;20060;-77
2021/05/17 11:12:56;;;;;;;1.20;0.53;;;12.80;92.30;;;;;;4748295;30;20052;-78
2021/05/17 11:15:48;;;;;;;1.30;0.60;;;12.80;93.90;;;;;;4749529;30;20067;-77
2021/05/17 11:18:16;;;;;;;0.55;0.55;;;13.00;93.70;;;;;;4732433;30;20067;-77
2021/05/17 11:20:48;;;;;;;0.47;0.47;;;13.00;93.10;;;;;;4746517;30;20060;-77
2021/05/17 11:23:28;;;;;;;4.32;0.85;;;13.20;94.70;;;;;;4747341;30;20067;-80
2021/05/17 11:25:58;;;;;;;5.75;0.73;;;13.30;91.80;;;;;;4746456;30;20415;-79
2021/05/17 11:28:35;;;;;;;1.25;0.52;;;13.30;91.20;;;;;;4744316;30;20519;-74
2021/05/17 11:31:20;;;;;;;8.65;0.60;;;13.10;91.30;;;;;;4734557;30;20052;-76
2021/05/17 11:33:51;;;;;;;0.38;0.38;;;13.10;90.60;;;;;;4714729;30;20608;-78
2021/05/17 11:36:33;;;;;;;1.30;0.50;;;13.20;94.60;;;;;;4744463;30;20067;-78
2021/05/17 11:39:22;;;;;;;1.17;1.15;;;13.50;93.20;;;;;;4741614;30;20499;-74
2021/05/17 11:42:05;;;;;;;1.75;0.47;;;13.80;91.30;;;;;;4747578;30;20403;-77
2021/05/17 11:47:37;;;;;;;0.70;0.70;;;13.60;94.40;;;;;;4732830;30;20056;-77
2021/05/17 11:50:08;;;;;;;5.65;0.70;;;13.40;90.80;;;;;;4747167;30;20072;-77
2021/05/17 11:52:37;;;;;;;1.17;0.50;;;13.20;93.30;;;;;;4730168;30;20059;-76
2021/05/17 11:55:07;;;;;;;1.08;0.45;;;13.00;91.00;;;;;;4731224;30;20064;-81
2021/05/17 11:57:41;;;;;;;1.25;0.50;;;13.00;91.60;;;;;;4729604;30;20060;-76
2021/05/17 12:00:15;;;;;;;0.95;0.52;;;12.90;92.20;;;;;;4730270;30;20068;-79
2021/05/17 12:02:47;;;;;;;3.00;0.90;;;12.80;92.70;;;;;;4706805;30;20072;-77
2021/05/17 12:05:16;;;;;;;1.33;0.70;;;13.00;93.00;;;;;;4748455;30;20522;-74
2021/05/17 12:07:52;;;;;;;6.45;1.70;;;13.10;91.70;;;;;;4748715;30;20059;-76
2021/05/17 12:10:21;;;;;;;1.67;1.42;;;12.90;92.20;;;;;;4737661;30;20048;-77
2021/05/17 12:12:52;;;;;;;1.15;0.60;;;12.70;92.30;;;;;;4749681;30;20063;-76
2021/05/17 12:15:21;;;;;;;1.23;0.47;;;12.80;92.00;;;;;;4748658;30;20056;-77
2021/05/17 12:17:50;;;;;;;0.40;0.40;;;13.10;93.10;;;;;;4749586;30;20294;-76
2021/05/17 12:20:18;;;;;;;4.28;0.93;;;13.30;91.00;;;;;;4748301;30;20059;-77
2021/05/17 12:22:48;;;;;;;0.47;0.47;;;13.10;90.40;;;;;;4748632;30;20411;-77
2021/05/17 12:25:22;;;;;;;1.75;1.17;;;12.90;92.50;;;;;;4749341;30;20052;-77
2021/05/17 12:27:52;;;;;;;8.50;0.88;;;12.80;91.90;;;;;;4749301;30;20064;-77
2021/05/17 12:30:21;;;;;;;1.02;0.60;;;12.80;92.50;;;;;;4749053;30;20052;-76
2021/05/17 12:32:54;;;;;;;0.50;0.50;;;13.00;91.90;;;;;;4733361;30;20052;-76
2021/05/17 12:35:27;;;;;;;0.30;0.30;;;13.20;90.80;;;;;;4749318;30;20056;-77
2021/05/17 12:38:06;;;;;;;2.00;0.60;;;13.90;92.60;;;;;;4746827;30;20067;-78
2021/05/17 12:40:40;;;;;;;0.77;0.35;;;14.00;89.80;;;;;;4732888;30;20052;-78
2021/05/17 12:43:40;;;;;;;1.45;0.73;;;13.90;89.50;;;;;;4749540;30;20503;-78
2021/05/17 12:46:15;;;;;;;3.03;0.35;;;13.90;90.20;;;;;;4687140;30;20052;-76
2021/05/17 12:48:49;;;;;;;1.88;0.40;;;14.30;90.10;;;;;;4745685;30;20048;-78
2021/05/17 12:51:22;;;;;;;0.32;0.32;;;14.50;89.60;;;;;;4743872;30;20075;-79
2021/05/17 12:54:09;;;;;;;0.30;0.30;;;14.40;90.00;;;;;;4732161;30;20069;-78
2021/05/17 12:56:37;;;;;;;0.52;0.52;;;13.80;87.30;;;;;;4749334;30;20051;-77
2021/05/17 12:59:14;;;;;;;0.32;0.32;;;13.60;89.60;;;;;;4749156;30;20072;-82
2021/05/17 13:01:42;;;;;;;1.63;0.40;;;13.70;90.40;;;;;;4733019;30;20056;-78
2021/05/17 13:04:10;;;;;;;1.60;0.45;;;13.70;92.10;;;;;;4733465;30;20060;-76
2021/05/17 13:06:40;;;;;;;2.50;0.40;;;14.30;90.40;;;;;;4749449;30;20565;-75
2021/05/17 13:09:20;;;;;;;0.52;0.43;;;14.70;90.00;;;;;;4746437;30;20048;-76
2021/05/17 13:11:56;;;;;;;0.75;0.70;;;14.50;85.90;;;;;;4732093;30;20075;-78
2021/05/17 13:14:24;;;;;;;;;;;14.50;84.90;;;;;;4749428;30;20094;-78
2021/05/17 13:16:55;;;;;;;1.85;0.40;;;14.70;87.80;;;;;;4747431;30;19955;-78
2021/05/17 13:20:02;;;;;;;2.28;0.50;;;14.70;90.10;;;;;;4748751;30;20068;-78
2021/05/17 13:30:59;;;;;;;0.30;0.30;;;14.00;86.50;;;;;;4740564;30;20060;-77
2021/05/17 13:33:46;;;;;;;2.08;0.40;;;13.70;90.40;;;;;;4732821;30;20053;-75
2021/05/17 13:36:19;;;;;;;0.40;0.40;;;13.10;92.40;;;;;;4743525;30;20072;-76
2021/05/17 13:38:50;;;;;;;0.60;0.60;;;13.00;92.80;;;;;;4735671;30;20060;-75
2021/05/17 13:41:23;;;;;;;;;;;13.00;93.00;;;;;;4750182;30;20396;-76
2021/05/17 13:44:16;;;;;;;0.65;0.65;;;13.00;93.00;;;;;;4733868;30;19931;-76
2021/05/17 13:46:44;;;;;;;0.30;0.30;;;13.00;92.80;;;;;;4734578;30;20506;-74
2021/05/17 13:49:12;;;;;;;0.95;0.52;;;13.50;92.40;;;;;;4751586;30;20052;-75
2021/05/17 13:51:39;;;;;;;0.47;0.30;;;14.10;93.50;;;;;;4751718;30;20063;-74
2021/05/17 13:54:07;;;;;;;0.38;0.35;;;14.10;90.80;;;;;;4750842;30;20052;-76
2021/05/17 13:56:35;;;;;;;0.57;0.40;;;13.70;91.10;;;;;;4750594;30;20091;-76
2021/05/17 13:59:03;;;;;;;2.65;0.85;;;13.50;92.00;;;;;;4752324;30;20060;-77